createdAt,value
2023-03-26T00:02:37.579Z,20.93
2023-03-26T00:06:37.598Z,20.92
2023-03-26T00:10:37.603Z,20.92
2023-03-26T00:14:37.575Z,20.90
2023-03-26T00:18:37.618Z,20.90
2023-03-26T00:22:37.606Z,20.90
2023-03-26T00:26:37.645Z,20.89
2023-03-26T00:30:37.689Z,20.88
2023-03-26T00:34:37.686Z,20.86
2023-03-26T00:38:37.726Z,20.82
2023-03-26T00:42:37.786Z,20.80
2023-03-26T00:46:37.950Z,20.77
2023-03-26T00:50:37.886Z,20.75
2023-03-26T00:54:37.988Z,20.75
2023-03-26T00:58:38.032Z,20.73
2023-03-26T01:02:38.196Z,20.72
2023-03-26T01:06:38.183Z,20.72
2023-03-26T01:10:38.231Z,20.70
2023-03-26T01:14:38.302Z,20.69
2023-03-26T01:18:38.365Z,20.68
2023-03-26T01:22:38.444Z,20.67
2023-03-26T01:26:38.546Z,20.66
2023-03-26T01:30:38.656Z,20.66
2023-03-26T01:34:38.773Z,20.64
2023-03-26T01:38:38.889Z,20.62
2023-03-26T01:42:39.001Z,20.60
2023-03-26T01:46:39.166Z,20.58
2023-03-26T01:50:39.266Z,20.57
2023-03-26T01:54:39.399Z,20.56
2023-03-26T01:58:39.562Z,20.54
2023-03-26T02:02:39.736Z,20.53
2023-03-26T02:06:39.806Z,20.52
2023-03-26T02:10:39.948Z,20.51
2023-03-26T02:14:40.127Z,20.48
2023-03-26T02:18:40.320Z,20.45
2023-03-26T02:22:40.465Z,20.43
2023-03-26T02:26:40.636Z,20.41
2023-03-26T02:30:40.837Z,20.39
2023-03-26T02:34:40.977Z,20.38
2023-03-26T02:38:41.176Z,20.36
2023-03-26T02:42:41.419Z,20.36
2023-03-26T02:46:41.623Z,20.36
2023-03-26T02:50:41.763Z,20.34
2023-03-26T02:54:41.957Z,20.32
2023-03-26T02:58:42.149Z,20.32
2023-03-26T03:02:42.437Z,20.30
2023-03-26T03:06:42.575Z,20.28
2023-03-26T03:10:42.754Z,20.27
2023-03-26T03:14:42.985Z,20.25
2023-03-26T03:18:43.200Z,20.25
2023-03-26T03:22:43.195Z,20.23
2023-03-26T03:26:43.132Z,20.23
2023-03-26T03:30:43.110Z,20.21
2023-03-26T03:34:43.076Z,20.18
2023-03-26T03:38:43.028Z,20.18
2023-03-26T03:42:43.020Z,20.16
2023-03-26T03:46:43.012Z,20.16
2023-03-26T03:50:42.935Z,20.13
2023-03-26T03:54:42.893Z,20.12
2023-03-26T03:58:43.027Z,20.11
2023-03-26T04:02:43.275Z,20.10
2023-03-26T04:06:42.935Z,20.09
2023-03-26T04:10:42.877Z,20.06
2023-03-26T04:14:42.952Z,20.05
2023-03-26T04:18:42.941Z,20.03
2023-03-26T04:22:42.766Z,20.02
2023-03-26T04:26:42.736Z,20.01
2023-03-26T04:30:42.697Z,20.00
2023-03-26T04:34:42.686Z,20.00
2023-03-26T04:38:42.614Z,20.00
2023-03-26T04:42:42.588Z,19.99
2023-03-26T04:46:42.627Z,19.97
2023-03-26T04:50:42.690Z,19.95
2023-03-26T04:54:42.691Z,19.94
2023-03-26T04:58:42.721Z,19.92
2023-03-26T05:02:42.681Z,19.87
2023-03-26T05:06:42.672Z,19.87
2023-03-26T05:10:42.648Z,19.87
2023-03-26T05:14:42.622Z,19.87
2023-03-26T05:18:42.932Z,19.86
2023-03-26T05:22:42.619Z,19.84
2023-03-26T05:26:42.551Z,19.83
2023-03-26T05:30:42.533Z,19.82
2023-03-26T05:34:42.581Z,19.80
2023-03-26T05:38:42.604Z,19.80
2023-03-26T05:42:42.636Z,19.80
2023-03-26T05:46:42.583Z,19.79
2023-03-26T05:50:42.595Z,19.78
2023-03-26T05:54:42.575Z,19.78
2023-03-26T05:58:42.599Z,19.75
2023-03-26T06:02:42.866Z,19.74
2023-03-26T06:06:42.586Z,19.74
2023-03-26T06:10:42.589Z,19.73
2023-03-26T06:14:42.624Z,19.73
2023-03-26T06:18:42.648Z,19.72
2023-03-26T06:22:42.604Z,19.73
2023-03-26T06:26:42.579Z,19.73
2023-03-26T06:30:42.607Z,19.73
2023-03-26T06:34:42.605Z,19.72
2023-03-26T06:38:42.586Z,19.72
2023-03-26T06:43:09.259Z,19.72
2023-03-26T06:46:43.587Z,19.72
2023-03-26T06:50:42.520Z,19.71
2023-03-26T06:54:42.511Z,19.71
2023-03-26T06:58:42.457Z,19.72
2023-03-26T07:02:42.471Z,19.73
2023-03-26T07:06:42.390Z,19.71
2023-03-26T07:10:42.355Z,19.71
2023-03-26T07:14:42.350Z,19.71
2023-03-26T07:18:42.385Z,19.70
2023-03-26T07:22:42.586Z,19.73
2023-03-26T07:26:42.464Z,19.75
2023-03-26T07:30:42.434Z,19.76
2023-03-26T07:34:42.430Z,19.76
2023-03-26T07:38:42.404Z,19.75
2023-03-26T07:42:42.404Z,19.75
2023-03-26T07:46:42.410Z,19.76
2023-03-26T07:50:42.417Z,19.79
2023-03-26T07:54:42.361Z,19.80
2023-03-26T07:58:42.365Z,19.81
2023-03-26T08:02:42.368Z,19.83
2023-03-26T08:06:42.316Z,19.84
2023-03-26T08:10:42.404Z,19.87
2023-03-26T08:14:42.493Z,19.87
2023-03-26T08:18:42.534Z,19.85
2023-03-26T08:22:42.572Z,19.86
2023-03-26T08:26:42.641Z,19.85
2023-03-26T08:30:42.687Z,19.88
2023-03-26T08:34:42.656Z,19.88
2023-03-26T08:38:42.943Z,19.91
2023-03-26T08:42:42.685Z,19.92
2023-03-26T08:46:42.708Z,19.91
2023-03-26T08:50:42.767Z,19.91
2023-03-26T08:54:42.860Z,19.92
2023-03-26T08:58:42.980Z,19.94
2023-03-26T09:02:43.184Z,19.95
2023-03-26T09:06:43.283Z,19.95
2023-03-26T09:10:43.380Z,19.96
2023-03-26T09:14:43.514Z,19.96
2023-03-26T09:18:43.644Z,19.95
2023-03-26T09:22:43.762Z,19.95
2023-03-26T09:26:43.919Z,19.96
2023-03-26T09:30:44.071Z,19.98
2023-03-26T09:34:44.088Z,19.98
2023-03-26T09:38:44.005Z,19.99
2023-03-26T09:42:43.988Z,20.01
2023-03-26T09:46:45.582Z,20.03
2023-03-26T09:50:43.903Z,20.04
2023-03-26T09:54:43.874Z,20.05
2023-03-26T09:58:43.846Z,20.08
2023-03-26T10:02:45.452Z,20.10
2023-03-26T10:06:43.729Z,20.11
2023-03-26T10:10:43.675Z,20.12
2023-03-26T10:14:43.637Z,20.14
2023-03-26T10:18:43.620Z,20.14
2023-03-26T10:22:43.591Z,20.14
2023-03-26T10:27:09.384Z,20.16
2023-03-26T10:30:44.552Z,20.16
2023-03-26T10:34:43.486Z,20.15
2023-03-26T10:38:43.640Z,20.13
2023-03-26T10:42:43.594Z,20.13
2023-03-26T10:46:43.514Z,20.12
2023-03-26T10:50:43.503Z,20.12
2023-03-26T10:54:43.469Z,20.12
2023-03-26T10:58:48.359Z,20.12
2023-03-26T11:02:44.604Z,20.14
2023-03-26T11:06:43.385Z,20.16
2023-03-26T11:10:43.484Z,20.17
2023-03-26T11:14:43.703Z,20.19
2023-03-26T11:18:43.673Z,20.21
2023-03-26T11:22:43.597Z,20.22
2023-03-26T11:26:43.587Z,20.22
2023-03-26T11:30:43.549Z,20.25
2023-03-26T11:34:43.516Z,20.25
2023-03-26T11:38:43.500Z,20.27
2023-03-26T11:42:43.449Z,20.29
2023-03-26T11:46:43.445Z,20.33
2023-03-26T11:50:43.412Z,20.34
2023-03-26T11:54:43.339Z,20.33
2023-03-26T11:58:43.350Z,20.33
2023-03-26T12:02:43.604Z,20.32
2023-03-26T12:06:43.724Z,20.30
2023-03-26T12:10:43.947Z,20.30
2023-03-26T12:14:44.126Z,20.29
2023-03-26T12:18:44.361Z,20.28
2023-03-26T12:22:45.703Z,20.27
2023-03-26T12:26:44.559Z,20.27
2023-03-26T12:30:44.491Z,20.27
2023-03-26T12:34:44.435Z,20.27
2023-03-26T12:38:44.431Z,20.27
2023-03-26T12:44:50.230Z,20.27
2023-03-26T12:47:57.688Z,20.27
2023-03-26T12:50:45.331Z,20.27
2023-03-26T12:54:44.267Z,20.26
2023-03-26T12:58:44.214Z,20.27
2023-03-26T13:02:44.217Z,20.27
2023-03-26T13:07:00.062Z,20.28
2023-03-26T13:10:45.184Z,20.28
2023-03-26T13:14:44.056Z,20.32
2023-03-26T13:18:44.101Z,20.35
2023-03-26T13:22:44.205Z,20.37
2023-03-26T13:26:44.426Z,20.38
2023-03-26T13:30:44.618Z,20.38
2023-03-26T13:34:44.743Z,20.36
2023-03-26T13:38:44.882Z,20.33
2023-03-26T13:42:45.845Z,20.32
2023-03-26T13:46:44.835Z,20.31
2023-03-26T13:50:44.790Z,20.30
2023-03-26T13:54:44.988Z,20.29
2023-03-26T13:58:45.151Z,20.28
2023-03-26T14:02:45.366Z,20.27
2023-03-26T14:06:45.511Z,20.26
2023-03-26T14:10:45.730Z,20.27
2023-03-26T14:14:46.883Z,20.24
2023-03-26T14:18:45.843Z,20.23
2023-03-26T14:22:45.847Z,20.23
2023-03-26T14:26:45.821Z,20.23
2023-03-26T14:30:45.762Z,20.23
2023-03-26T14:34:45.737Z,20.23
2023-03-26T14:38:45.703Z,20.22
2023-03-26T14:42:45.680Z,20.22
2023-03-26T14:46:45.658Z,20.22
2023-03-26T14:50:45.588Z,20.22
2023-03-26T14:54:45.545Z,20.21
2023-03-26T14:58:45.571Z,20.20
2023-03-26T15:02:45.517Z,20.19
2023-03-26T15:06:45.635Z,20.18
2023-03-26T15:10:45.442Z,20.17
2023-03-26T15:14:45.398Z,20.16
2023-03-26T15:18:45.381Z,20.14
2023-03-26T15:22:45.338Z,20.12
2023-03-26T15:26:45.295Z,20.12
2023-03-26T15:30:45.275Z,20.12
2023-03-26T15:34:45.253Z,20.10
2023-03-26T15:38:45.291Z,20.09
2023-03-26T15:42:45.249Z,20.09
2023-03-26T15:46:45.218Z,20.08
2023-03-26T15:50:45.175Z,20.08
2023-03-26T15:54:45.154Z,20.07
2023-03-26T15:58:45.115Z,20.08
2023-03-26T16:02:45.100Z,20.07
2023-03-26T16:06:45.031Z,20.06
2023-03-26T16:10:44.987Z,20.05
2023-03-26T16:14:44.955Z,20.02
2023-03-26T16:18:44.956Z,20.02
2023-03-26T16:22:44.940Z,20.00
2023-03-26T16:26:44.905Z,19.99
2023-03-26T16:30:44.909Z,19.99
2023-03-26T16:34:44.817Z,19.99
2023-03-26T16:38:44.810Z,19.99
2023-03-26T16:42:44.778Z,19.97
2023-03-26T16:46:44.782Z,19.97
2023-03-26T16:50:44.671Z,19.96
2023-03-26T16:54:45.971Z,19.96
2023-03-26T16:58:44.654Z,19.96
2023-03-26T17:02:44.791Z,19.95
2023-03-26T17:06:44.605Z,19.93
2023-03-26T17:10:44.545Z,19.93
2023-03-26T17:14:44.524Z,19.92
2023-03-26T17:18:44.472Z,19.91
2023-03-26T17:22:44.414Z,19.90
2023-03-26T17:26:44.380Z,19.90
2023-03-26T17:30:44.340Z,19.88
2023-03-26T17:34:44.327Z,19.86
2023-03-26T17:38:45.329Z,19.85
2023-03-26T17:42:44.245Z,19.84
2023-03-26T17:46:45.059Z,19.84
2023-03-26T17:50:44.210Z,19.83
2023-03-26T17:54:44.287Z,19.81
2023-03-26T17:58:44.177Z,19.80
2023-03-26T18:02:44.209Z,19.78
2023-03-26T18:06:44.130Z,19.78
2023-03-26T18:10:44.134Z,19.77
2023-03-26T18:14:44.122Z,19.77
2023-03-26T18:18:44.120Z,19.76
2023-03-26T18:22:44.133Z,19.76
2023-03-26T18:26:44.101Z,19.75
2023-03-26T18:30:44.064Z,19.71
2023-03-26T18:34:44.076Z,19.71
2023-03-26T18:38:44.234Z,19.71
2023-03-26T18:42:44.004Z,19.70
2023-03-26T18:46:43.989Z,19.70
2023-03-26T18:50:43.942Z,19.69
2023-03-26T18:54:43.925Z,19.68
2023-03-26T18:58:43.910Z,19.66
2023-03-26T19:02:43.973Z,19.66
2023-03-26T19:06:43.925Z,19.64
2023-03-26T19:10:43.954Z,19.65
2023-03-26T19:14:43.962Z,19.64
2023-03-26T19:18:44.253Z,19.64
2023-03-26T19:22:44.008Z,19.63
2023-03-26T19:26:43.990Z,19.60
2023-03-26T19:30:44.057Z,19.59
2023-03-26T19:34:44.006Z,19.56
2023-03-26T19:38:44.026Z,19.56
2023-03-26T19:42:45.033Z,19.55
2023-03-26T19:46:53.969Z,19.53
2023-03-26T19:50:44.999Z,19.53
2023-03-26T19:54:59.024Z,19.52
2023-03-26T19:58:44.960Z,19.52
2023-03-26T20:02:43.965Z,19.49
2023-03-26T20:06:44.400Z,19.50
2023-03-26T20:10:43.821Z,19.49
2023-03-26T20:14:43.779Z,19.50
2023-03-26T20:18:43.732Z,19.49
2023-03-26T20:22:43.693Z,19.49
2023-03-26T20:26:43.744Z,19.48
2023-03-26T20:30:43.752Z,19.47
2023-03-26T20:34:43.810Z,19.46
2023-03-26T20:38:43.856Z,19.44
2023-03-26T20:42:43.924Z,19.44
2023-03-26T20:46:44.052Z,19.42
2023-03-26T20:50:50.752Z,19.41
2023-03-26T20:54:44.919Z,19.40
2023-03-26T20:58:43.909Z,19.40
2023-03-26T21:02:43.972Z,19.38
2023-03-26T21:06:43.819Z,19.39
2023-03-26T21:10:43.806Z,19.37
2023-03-26T21:14:43.759Z,19.36
2023-03-26T21:18:43.715Z,19.37
2023-03-26T21:22:43.816Z,19.36
2023-03-26T21:26:43.842Z,19.34
2023-03-26T21:30:43.857Z,19.34
2023-03-26T21:34:55.553Z,19.35
2023-03-26T21:38:44.865Z,19.33
2023-03-26T21:42:43.802Z,19.31
2023-03-26T21:46:43.796Z,19.31
2023-03-26T21:50:43.769Z,19.29
2023-03-26T21:54:43.732Z,19.29
2023-03-26T21:58:43.678Z,19.28
2023-03-26T22:02:43.691Z,19.26
2023-03-26T22:06:43.648Z,19.27
2023-03-26T22:10:43.714Z,19.26
2023-03-26T22:14:43.761Z,19.26
2023-03-26T22:18:43.787Z,19.25
2023-03-26T22:22:43.832Z,19.25
2023-03-26T22:26:43.841Z,19.24
2023-03-26T22:30:43.902Z,19.22
2023-03-26T22:34:43.914Z,19.21
2023-03-26T22:38:43.969Z,19.21
2023-03-26T22:42:44.059Z,19.20
2023-03-26T22:46:44.188Z,19.20
2023-03-26T22:50:44.139Z,19.18
2023-03-26T22:54:44.170Z,19.19
2023-03-26T22:58:44.243Z,19.18
2023-03-26T23:02:44.335Z,19.15
2023-03-26T23:06:44.351Z,19.16
2023-03-26T23:10:44.444Z,19.15
2023-03-26T23:14:44.487Z,19.14
2023-03-26T23:18:44.585Z,19.11
2023-03-26T23:22:44.636Z,19.11
2023-03-26T23:26:50.565Z,19.10
2023-03-26T23:30:45.716Z,19.09
2023-03-26T23:34:51.931Z,19.10
2023-03-26T23:38:45.645Z,19.08
2023-03-26T23:42:44.583Z,19.08
2023-03-26T23:46:44.581Z,19.04
2023-03-26T23:50:44.527Z,19.02
2023-03-26T23:54:44.572Z,19.02
2023-03-26T23:58:44.653Z,19.02
